General Aviation Weather

Text Reports

Enter one or more of the following location identifiers separated by a space:

Zip Code, Four-Character ICAO or Three-Character IATA airport codes.

METAR - Aviation Routine Weather Report
K19A - Jefferson, Georgia
Updated at 9:15 PM GMT on December 20, 2014 (4:15 PM EST):
METAR K19A 202115Z AUTO 00000KT 4SM BR OVC004 07/07 A3017 RMK AO2
TAF - Terminal Area Forecast
K19A - Jefferson, Georgia
Updated at 9:15 PM GMT on December 20, 2014 (4:15 PM EST):
No TAF is currently available for this location.
Decoded:
No decoded TAF is available.
PIREP - Pilot Weather Report
K19A - Jefferson, Georgia
Updated at 9:15 PM GMT on December 20, 2014 (4:15 PM EST):
No PIREP is currently available for this location.
AIRMET - Airmens Meteorological Information
K19A - Jefferson, Georgia
Updated at 9:15 PM GMT on December 20, 2014 (4:15 PM EST):
No AIRMET is currently available for this location.
SIGMET - Significant Meteorological Information
K19A - Jefferson, Georgia
Updated at 9:15 PM GMT on December 20, 2014 (4:15 PM EST):
No SIGMET is currently available for this location.
NOTAM - Notice to Airmen
K19A - Jefferson, Georgia
Updated at 9:15 PM GMT on December 20, 2014 (4:15 PM EST):
No NOTAM is currently available for this location.
Forecast Area
K19A - Jefferson, Georgia
Updated at 9:15 PM GMT on December 20, 2014 (4:15 PM EST):
No NOTAM is currently available for this location.
Aviation Weather Maps